Time;durP1;ratioP1;P1;durP2;ratioP2;P2;SDS_P1;SDS_P2;PMS_P1;PMS_P2;Temp;Humidity;BMP_temperature;BMP_pressure;BME280_temperature;BME280_humidity;BME280_pressure;Samples;Min_cycle;Max_cycle;Signal;HPM_P1;HPM_P2
2023/05/14 00:01:56;;;;;;;11.03;9.93;;;;;;;;;;5055719;28;20238;-64
2023/05/14 00:04:23;;;;;;;11.67;9.60;;;;;;;;;;5063111;28;20206;-64
2023/05/14 00:06:50;;;;;;;10.87;9.77;;;;;;;;;;5059894;28;20218;-64
2023/05/14 00:09:18;;;;;;;11.17;10.07;;;;;;;;;;5055129;28;20263;-65
2023/05/14 00:11:45;;;;;;;11.90;10.70;;;;;;;;;;5061739;28;20675;-64
2023/05/14 00:14:13;;;;;;;11.80;10.60;;;;;;;;;;5054519;28;20249;-64
2023/05/14 00:16:40;;;;;;;11.80;10.60;;;;;;;;;;5051435;28;20734;-64
2023/05/14 00:19:08;;;;;;;11.73;10.50;;;;;;;;;;5057325;28;20298;-63
2023/05/14 00:21:35;;;;;;;12.13;10.90;;;;;;;;;;5066772;28;20233;-63
2023/05/14 00:24:02;;;;;;;12.73;10.10;;;;;;;;;;5048859;28;20637;-64
2023/05/14 00:26:30;;;;;;;13.37;10.90;;;;;;;;;;5057316;28;20259;-63
2023/05/14 00:28:57;;;;;;;11.57;10.37;;;;;;;;;;5047197;28;20253;-62
2023/05/14 00:31:24;;;;;;;12.17;10.93;;;;;;;;;;5049229;28;20233;-62
2023/05/14 00:33:52;;;;;;;11.60;10.40;;;;;;;;;;5053521;28;20210;-64
2023/05/14 00:36:19;;;;;;;11.77;10.57;;;;;;;;;;5066640;28;20355;-64
2023/05/14 00:38:47;;;;;;;11.97;10.77;;;;;;;;;;5055795;28;20205;-64
2023/05/14 00:41:14;;;;;;;12.60;10.47;;;;;;;;;;5054609;28;20283;-64
2023/05/14 00:43:52;;;;;;;11.53;10.43;;;;;;;;;;5054099;28;20200;-64
2023/05/14 00:46:32;;;;;;;12.07;10.83;;;;;;;;;;5056090;28;20205;-63
2023/05/14 00:49:17;;;;;;;12.00;10.80;;;;;;;;;;5054855;28;20203;-63
2023/05/14 00:52:03;;;;;;;11.87;10.67;;;;;;;;;;5055668;28;20216;-64
2023/05/14 00:54:49;;;;;;;10.77;9.67;;;;;;;;;;5062281;28;20664;-64
2023/05/14 00:57:23;;;;;;;11.37;10.10;;;;;;;;;;5054073;28;20317;-65
2023/05/14 00:59:51;;;;;;;12.17;10.97;;;;;;;;;;5051343;28;20629;-64
2023/05/14 01:02:20;;;;;;;11.90;10.70;;;;;;;;;;5045718;28;20229;-64
2023/05/14 01:05:02;;;;;;;12.00;10.80;;;;;;;;;;5053453;28;20204;-65
2023/05/14 01:07:48;;;;;;;11.60;10.40;;;;;;;;;;5045640;28;20298;-64
2023/05/14 01:10:38;;;;;;;13.13;10.67;;;;;;;;;;5052722;28;20206;-64
2023/05/14 01:13:19;;;;;;;12.27;11.07;;;;;;;;;;5056175;28;20217;-64
2023/05/14 01:15:47;;;;;;;11.70;10.60;;;;;;;;;;5052090;28;20189;-63
2023/05/14 01:18:18;;;;;;;11.50;9.73;;;;;;;;;;5066618;28;20282;-63
2023/05/14 01:20:50;;;;;;;11.80;10.60;;;;;;;;;;5052449;28;20241;-64
2023/05/14 01:23:17;;;;;;;10.77;9.77;;;;;;;;;;5049324;28;20198;-64
2023/05/14 01:25:45;;;;;;;11.70;10.50;;;;;;;;;;5038565;28;20211;-62
2023/05/14 01:28:16;;;;;;;12.37;10.90;;;;;;;;;;5046397;28;20665;-63
2023/05/14 01:30:57;;;;;;;13.10;10.87;;;;;;;;;;5043302;28;20205;-63
2023/05/14 01:33:27;;;;;;;11.57;10.40;;;;;;;;;;5050780;28;20351;-64
2023/05/14 01:35:55;;;;;;;11.43;10.17;;;;;;;;;;5058082;28;20201;-64
2023/05/14 01:38:22;;;;;;;11.43;10.30;;;;;;;;;;5072331;28;20229;-65
2023/05/14 01:40:50;;;;;;;11.40;10.23;;;;;;;;;;5053824;28;20310;-64
2023/05/14 01:43:18;;;;;;;12.60;10.03;;;;;;;;;;5032232;28;20213;-65
2023/05/14 01:45:46;;;;;;;11.00;10.00;;;;;;;;;;5046073;28;20250;-64
2023/05/14 01:48:14;;;;;;;11.80;10.63;;;;;;;;;;5055071;28;20594;-65
2023/05/14 01:50:42;;;;;;;12.63;11.33;;;;;;;;;;5044406;28;20228;-63
2023/05/14 01:53:09;;;;;;;12.87;10.90;;;;;;;;;;5046773;28;20233;-62
2023/05/14 01:55:36;;;;;;;10.83;9.77;;;;;;;;;;5047400;28;20275;-65
2023/05/14 01:58:04;;;;;;;12.43;10.57;;;;;;;;;;5041360;28;20320;-62
2023/05/14 02:00:31;;;;;;;11.30;10.20;;;;;;;;;;5041997;28;20358;-63
2023/05/14 02:02:59;;;;;;;12.20;11.00;;;;;;;;;;5056532;28;20212;-62
2023/05/14 02:05:27;;;;;;;12.70;11.23;;;;;;;;;;5049261;28;20202;-63
2023/05/14 02:07:55;;;;;;;11.40;10.20;;;;;;;;;;5054323;28;20228;-63
2023/05/14 02:10:23;;;;;;;12.00;10.70;;;;;;;;;;5062798;28;20255;-63
2023/05/14 02:12:51;;;;;;;12.60;10.50;;;;;;;;;;5053762;28;20245;-62
2023/05/14 02:15:19;;;;;;;11.93;10.17;;;;;;;;;;5052818;28;20348;-63
2023/05/14 02:17:47;;;;;;;11.53;10.33;;;;;;;;;;5051702;28;20251;-63
2023/05/14 02:20:15;;;;;;;12.40;10.47;;;;;;;;;;5049415;28;20205;-63
2023/05/14 02:22:44;;;;;;;12.67;10.67;;;;;;;;;;5054810;28;20741;-62
2023/05/14 02:25:12;;;;;;;11.10;10.00;;;;;;;;;;5055080;28;20747;-63
2023/05/14 02:27:40;;;;;;;11.17;10.07;;;;;;;;;;5047998;28;20637;-62
2023/05/14 02:30:08;;;;;;;11.33;10.13;;;;;;;;;;5054002;28;20625;-64
2023/05/14 02:32:37;;;;;;;12.33;11.03;;;;;;;;;;5045928;28;20209;-63
2023/05/14 02:35:05;;;;;;;11.33;10.23;;;;;;;;;;5055939;28;20241;-64
2023/05/14 02:37:33;;;;;;;12.27;10.87;;;;;;;;;;5045344;28;20256;-64
2023/05/14 02:40:03;;;;;;;12.20;10.93;;;;;;;;;;5063973;28;20301;-63
2023/05/14 02:42:33;;;;;;;11.83;10.63;;;;;;;;;;5054351;28;20248;-62
2023/05/14 02:45:01;;;;;;;11.50;10.30;;;;;;;;;;5052070;28;20202;-63
2023/05/14 02:47:30;;;;;;;14.70;12.10;;;;;;;;;;5034780;28;20666;-64
2023/05/14 02:49:57;;;;;;;12.97;11.43;;;;;;;;;;5050303;28;20206;-63
2023/05/14 02:52:25;;;;;;;12.73;10.80;;;;;;;;;;5053016;28;20284;-63
2023/05/14 02:54:53;;;;;;;11.77;10.57;;;;;;;;;;5047315;28;21700;-64
2023/05/14 02:57:20;;;;;;;11.57;10.37;;;;;;;;;;5048210;28;20229;-65
2023/05/14 02:59:47;;;;;;;11.13;10.03;;;;;;;;;;5054096;28;20243;-64
2023/05/14 03:02:15;;;;;;;11.70;10.50;;;;;;;;;;5041855;28;20235;-64
2023/05/14 03:04:43;;;;;;;11.97;10.60;;;;;;;;;;5056999;28;20193;-65
2023/05/14 03:07:10;;;;;;;11.87;10.67;;;;;;;;;;5054588;28;20270;-64
2023/05/14 03:09:38;;;;;;;12.07;10.80;;;;;;;;;;5052273;28;20233;-64
2023/05/14 03:12:05;;;;;;;11.10;10.00;;;;;;;;;;5048211;28;20316;-62
2023/05/14 03:14:32;;;;;;;12.43;11.13;;;;;;;;;;5055241;28;20205;-63
2023/05/14 03:17:00;;;;;;;12.63;11.30;;;;;;;;;;5053784;28;20218;-65
2023/05/14 03:19:27;;;;;;;12.40;11.10;;;;;;;;;;5053145;28;20205;-63
2023/05/14 03:21:55;;;;;;;12.70;10.80;;;;;;;;;;5047692;28;20233;-61
2023/05/14 03:24:22;;;;;;;12.00;10.70;;;;;;;;;;5053212;28;20232;-64
2023/05/14 03:26:49;;;;;;;13.07;10.63;;;;;;;;;;5060075;28;20224;-65
2023/05/14 03:29:17;;;;;;;12.83;11.07;;;;;;;;;;5053411;28;20638;-65
2023/05/14 03:31:44;;;;;;;11.97;10.63;;;;;;;;;;5045800;28;20221;-63
2023/05/14 03:34:12;;;;;;;11.17;10.00;;;;;;;;;;5046325;28;20312;-63
2023/05/14 03:36:39;;;;;;;11.83;10.63;;;;;;;;;;5066000;28;20290;-64
2023/05/14 03:39:08;;;;;;;12.20;10.90;;;;;;;;;;5064774;28;20205;-64
2023/05/14 03:41:36;;;;;;;12.10;10.77;;;;;;;;;;5040851;28;20709;-62
2023/05/14 03:44:06;;;;;;;12.30;11.00;;;;;;;;;;5057678;28;20292;-63
2023/05/14 03:46:47;;;;;;;13.23;11.03;;;;;;;;;;5053729;28;20228;-64
2023/05/14 03:49:24;;;;;;;14.63;10.90;;;;;;;;;;5058539;28;20719;-64
2023/05/14 03:55:00;;;;;;;12.83;11.43;;;;;;;;;;5058404;28;20205;-64
2023/05/14 04:00:32;;;;;;;12.37;10.53;;;;;;;;;;5053738;28;22101;-63
2023/05/14 04:03:18;;;;;;;12.63;11.00;;;;;;;;;;5050274;28;20284;-63
2023/05/14 04:05:46;;;;;;;11.60;10.40;;;;;;;;;;5059114;28;20368;-64
2023/05/14 04:08:15;;;;;;;12.93;11.17;;;;;;;;;;5058635;28;20230;-65
2023/05/14 04:10:56;;;;;;;10.73;9.53;;;;;;;;;;5050267;28;20237;-65
2023/05/14 04:13:38;;;;;;;12.33;10.90;;;;;;;;;;5052552;28;20210;-65
2023/05/14 04:16:20;;;;;;;11.77;10.57;;;;;;;;;;5051241;28;20240;-62
2023/05/14 04:19:03;;;;;;;18.70;14.67;;;;;;;;;;5050137;28;20296;-63
2023/05/14 04:21:46;;;;;;;19.77;13.80;;;;;;;;;;5052570;28;20237;-64
2023/05/14 04:24:13;;;;;;;19.87;13.93;;;;;;;;;;5073676;28;20194;-64
2023/05/14 04:26:47;;;;;;;13.23;11.37;;;;;;;;;;5065269;28;20764;-63
2023/05/14 04:29:21;;;;;;;12.40;11.07;;;;;;;;;;5052988;28;20288;-63
2023/05/14 04:31:54;;;;;;;13.60;10.83;;;;;;;;;;5059785;28;20209;-64
2023/05/14 04:34:22;;;;;;;12.10;10.90;;;;;;;;;;5054197;28;20292;-65
2023/05/14 04:36:50;;;;;;;13.90;10.90;;;;;;;;;;5038028;28;21315;-64
2023/05/14 04:39:18;;;;;;;13.23;10.60;;;;;;;;;;5049776;28;20235;-63
2023/05/14 04:41:45;;;;;;;12.23;10.50;;;;;;;;;;5047256;28;20367;-65
2023/05/14 04:44:12;;;;;;;11.90;10.70;;;;;;;;;;5044586;28;20282;-65
2023/05/14 04:46:40;;;;;;;14.90;10.90;;;;;;;;;;5045980;28;20237;-63
2023/05/14 04:49:07;;;;;;;12.87;10.57;;;;;;;;;;5051573;28;20614;-65
2023/05/14 04:51:35;;;;;;;12.67;10.97;;;;;;;;;;5047889;28;20637;-64
2023/05/14 04:54:02;;;;;;;14.93;10.87;;;;;;;;;;5049412;28;20316;-64
2023/05/14 04:56:30;;;;;;;11.73;10.43;;;;;;;;;;5045302;28;20205;-64
2023/05/14 04:58:57;;;;;;;12.67;11.30;;;;;;;;;;5043827;28;20202;-64
2023/05/14 05:01:25;;;;;;;13.50;11.27;;;;;;;;;;5044593;28;20778;-63
2023/05/14 05:03:53;;;;;;;12.97;11.57;;;;;;;;;;5046809;28;20198;-65
2023/05/14 05:06:20;;;;;;;14.83;11.97;;;;;;;;;;5047773;28;20308;-66
2023/05/14 05:08:47;;;;;;;14.13;12.43;;;;;;;;;;5047218;28;20794;-63
2023/05/14 05:11:15;;;;;;;15.03;12.70;;;;;;;;;;5033309;28;20209;-64
2023/05/14 05:13:42;;;;;;;15.53;12.30;;;;;;;;;;5046842;28;20604;-62
2023/05/14 05:16:10;;;;;;;15.67;13.30;;;;;;;;;;5047028;28;20290;-63
2023/05/14 05:18:37;;;;;;;16.67;13.87;;;;;;;;;;5050236;28;20221;-64
2023/05/14 05:21:05;;;;;;;17.37;13.47;;;;;;;;;;5053039;28;20213;-64
2023/05/14 05:23:33;;;;;;;19.50;13.20;;;;;;;;;;5052000;28;20233;-64
2023/05/14 05:26:00;;;;;;;18.07;14.40;;;;;;;;;;5049847;28;20336;-65
2023/05/14 05:28:27;;;;;;;17.90;14.50;;;;;;;;;;5049080;28;20336;-66
2023/05/14 05:30:55;;;;;;;23.37;14.80;;;;;;;;;;5060416;28;20194;-64
2023/05/14 05:33:22;;;;;;;17.83;13.97;;;;;;;;;;5051512;28;20275;-65
2023/05/14 05:35:51;;;;;;;17.93;14.83;;;;;;;;;;5047554;28;20325;-64
2023/05/14 05:38:18;;;;;;;19.47;14.17;;;;;;;;;;5050176;28;20247;-64
2023/05/14 05:40:46;;;;;;;20.03;13.83;;;;;;;;;;5063111;28;20256;-64
2023/05/14 05:43:22;;;;;;;18.97;14.23;;;;;;;;;;5059757;28;20213;-63
2023/05/14 05:46:11;;;;;;;18.93;14.33;;;;;;;;;;5062638;28;20730;-64
2023/05/14 05:51:38;;;;;;;18.53;15.20;;;;;;;;;;5062452;28;20201;-65
2023/05/14 05:54:09;;;;;;;19.07;14.30;;;;;;;;;;5063454;28;20202;-62
2023/05/14 05:56:47;;;;;;;16.53;13.73;;;;;;;;;;5064035;28;20562;-64
2023/05/14 05:59:33;;;;;;;20.63;15.40;;;;;;;;;;5062199;28;20420;-63
2023/05/14 06:02:02;;;;;;;19.90;15.53;;;;;;;;;;5057708;28;20231;-64
2023/05/14 06:04:31;;;;;;;21.67;16.27;;;;;;;;;;5058285;28;20251;-62
2023/05/14 06:06:58;;;;;;;22.20;17.00;;;;;;;;;;5056611;28;20230;-63
2023/05/14 06:09:25;;;;;;;21.27;16.53;;;;;;;;;;5056018;28;20206;-64
2023/05/14 06:11:52;;;;;;;19.90;16.87;;;;;;;;;;5049638;28;20210;-65
2023/05/14 06:14:20;;;;;;;22.67;17.30;;;;;;;;;;5065520;28;20202;-64
2023/05/14 06:16:47;;;;;;;22.30;17.03;;;;;;;;;;5057655;28;20255;-64
2023/05/14 06:19:15;;;;;;;20.13;15.83;;;;;;;;;;5061273;28;20728;-64
2023/05/14 06:21:42;;;;;;;20.43;15.93;;;;;;;;;;5050047;28;20279;-64
2023/05/14 06:24:10;;;;;;;20.43;15.87;;;;;;;;;;5053293;28;20573;-65
2023/05/14 06:26:37;;;;;;;19.40;16.07;;;;;;;;;;5053297;28;20687;-63
2023/05/14 06:29:05;;;;;;;20.83;15.83;;;;;;;;;;5054263;28;20272;-65
2023/05/14 06:31:32;;;;;;;21.17;15.83;;;;;;;;;;5057086;28;20618;-64
2023/05/14 06:33:59;;;;;;;42.00;28.33;;;;;;;;;;5054943;28;20659;-64
2023/05/14 06:36:27;;;;;;;20.47;15.50;;;;;;;;;;5062112;28;20200;-64
2023/05/14 06:38:54;;;;;;;16.87;14.90;;;;;;;;;;5062367;28;20867;-64
2023/05/14 06:41:22;;;;;;;18.47;14.87;;;;;;;;;;5050388;28;20205;-64
2023/05/14 06:43:49;;;;;;;18.00;15.07;;;;;;;;;;5053064;28;20253;-64
2023/05/14 06:46:16;;;;;;;18.23;15.07;;;;;;;;;;5053760;28;20285;-64
2023/05/14 06:48:44;;;;;;;22.20;16.83;;;;;;;;;;5055316;28;20288;-64
2023/05/14 06:51:12;;;;;;;29.63;19.03;;;;;;;;;;5050713;28;20738;-65
2023/05/14 06:53:40;;;;;;;18.97;15.60;;;;;;;;;;5047505;28;20461;-65
2023/05/14 06:56:15;;;;;;;19.87;15.90;;;;;;;;;;5051047;28;20220;-63
2023/05/14 06:58:57;;;;;;;20.33;15.53;;;;;;;;;;5054097;28;20197;-64
2023/05/14 07:01:25;;;;;;;21.63;16.03;;;;;;;;;;5048342;28;20206;-66
2023/05/14 07:03:52;;;;;;;19.23;14.97;;;;;;;;;;5045803;28;20325;-64
2023/05/14 07:06:20;;;;;;;20.50;16.57;;;;;;;;;;5040152;28;20206;-65
2023/05/14 07:08:48;;;;;;;21.33;16.23;;;;;;;;;;5043776;28;20226;-64
2023/05/14 07:11:15;;;;;;;19.73;15.80;;;;;;;;;;5063822;28;20217;-65
2023/05/14 07:13:43;;;;;;;20.40;15.90;;;;;;;;;;5075143;28;20462;-64
2023/05/14 07:16:10;;;;;;;20.63;15.70;;;;;;;;;;5039909;28;20221;-64
2023/05/14 07:18:38;;;;;;;22.27;16.40;;;;;;;;;;5041364;28;20217;-64
2023/05/14 07:21:05;;;;;;;21.57;16.43;;;;;;;;;;5051563;28;20214;-64
2023/05/14 07:23:35;;;;;;;18.90;14.93;;;;;;;;;;5046017;28;20676;-64
2023/05/14 07:26:02;;;;;;;18.60;15.07;;;;;;;;;;5050176;28;20332;-64
2023/05/14 07:28:30;;;;;;;18.93;15.37;;;;;;;;;;5045061;28;20685;-65
2023/05/14 07:30:57;;;;;;;18.03;14.67;;;;;;;;;;5051229;28;20292;-64
2023/05/14 07:33:24;;;;;;;17.13;14.93;;;;;;;;;;5057749;28;20733;-64
2023/05/14 07:35:53;;;;;;;15.37;13.37;;;;;;;;;;5039572;28;20259;-64
2023/05/14 07:38:20;;;;;;;15.87;14.17;;;;;;;;;;5044860;28;20324;-63
2023/05/14 07:40:47;;;;;;;16.70;13.90;;;;;;;;;;5056302;28;20206;-64
2023/05/14 07:43:15;;;;;;;15.27;13.63;;;;;;;;;;5035734;28;20217;-63
2023/05/14 07:45:42;;;;;;;18.10;14.30;;;;;;;;;;5052333;28;20240;-65
2023/05/14 07:48:10;;;;;;;16.57;14.50;;;;;;;;;;5036174;28;20257;-64
2023/05/14 07:50:37;;;;;;;18.20;14.87;;;;;;;;;;5039085;28;20214;-64
2023/05/14 07:53:05;;;;;;;16.87;14.57;;;;;;;;;;5054495;28;20213;-65
2023/05/14 07:55:33;;;;;;;17.93;14.63;;;;;;;;;;5056723;28;20221;-64
2023/05/14 07:58:00;;;;;;;18.37;14.77;;;;;;;;;;5043783;28;20398;-65
2023/05/14 08:00:27;;;;;;;15.70;13.53;;;;;;;;;;5044418;28;20599;-64
2023/05/14 08:02:55;;;;;;;15.87;14.27;;;;;;;;;;5041229;28;20722;-65
2023/05/14 08:05:23;;;;;;;21.43;17.20;;;;;;;;;;5038936;28;20212;-64
2023/05/14 08:07:50;;;;;;;14.50;12.93;;;;;;;;;;5043531;28;21119;-65
2023/05/14 08:10:18;;;;;;;14.73;12.88;;;;;;;;;;5068508;28;20215;-65
2023/05/14 08:12:45;;;;;;;16.53;13.47;;;;;;;;;;5055978;28;20213;-65
2023/05/14 08:15:12;;;;;;;14.60;13.07;;;;;;;;;;5055019;28;20209;-64
2023/05/14 08:17:40;;;;;;;15.23;13.63;;;;;;;;;;5054274;28;20237;-65
2023/05/14 08:20:08;;;;;;;15.02;13.07;;;;;;;;;;5051527;28;20206;-64
2023/05/14 08:22:36;;;;;;;15.88;13.15;;;;;;;;;;5043667;28;20230;-65
2023/05/14 08:25:04;;;;;;;13.32;11.93;;;;;;;;;;5054340;28;20228;-66
2023/05/14 08:27:32;;;;;;;18.17;15.57;;;;;;;;;;5048015;28;20871;-66
2023/05/14 08:30:00;;;;;;;14.60;12.70;;;;;;;;;;5051304;28;20205;-66
2023/05/14 08:32:28;;;;;;;13.98;12.52;;;;;;;;;;5052507;28;20217;-65
2023/05/14 08:34:58;;;;;;;13.77;11.98;;;;;;;;;;5053125;28;20210;-64
2023/05/14 08:37:27;;;;;;;17.33;14.43;;;;;;;;;;5055796;28;20754;-64
2023/05/14 08:39:55;;;;;;;17.60;13.65;;;;;;;;;;5052577;28;20206;-64
2023/05/14 08:42:24;;;;;;;16.85;14.50;;;;;;;;;;5053934;28;20250;-63
2023/05/14 08:45:02;;;;;;;12.35;11.15;;;;;;;;;;5053037;28;20202;-64
2023/05/14 08:47:30;;;;;;;12.23;10.55;;;;;;;;;;5049345;28;20299;-65
2023/05/14 08:50:01;;;;;;;14.77;10.63;;;;;;;;;;5049147;28;20212;-65
2023/05/14 08:52:29;;;;;;;13.88;12.10;;;;;;;;;;5053652;28;20229;-65
2023/05/14 08:54:58;;;;;;;14.02;11.68;;;;;;;;;;5063797;28;20221;-67
2023/05/14 08:57:26;;;;;;;12.90;11.30;;;;;;;;;;5057950;28;20625;-65
2023/05/14 08:59:54;;;;;;;11.65;10.55;;;;;;;;;;5054451;28;20304;-64
2023/05/14 09:02:23;;;;;;;10.70;9.32;;;;;;;;;;5043433;28;20287;-63
2023/05/14 09:04:53;;;;;;;11.05;9.95;;;;;;;;;;5050976;28;20204;-64
2023/05/14 09:07:21;;;;;;;11.50;10.30;;;;;;;;;;5060672;28;20352;-64
2023/05/14 09:09:51;;;;;;;11.25;10.05;;;;;;;;;;5051198;28;20208;-64
2023/05/14 09:12:21;;;;;;;9.85;8.85;;;;;;;;;;5062612;28;20559;-65
2023/05/14 09:14:49;;;;;;;10.35;9.25;;;;;;;;;;5058021;28;20202;-65
2023/05/14 09:17:18;;;;;;;11.70;9.07;;;;;;;;;;5055241;28;20215;-63
2023/05/14 09:19:48;;;;;;;10.13;9.13;;;;;;;;;;5059544;28;20898;-66
2023/05/14 09:22:17;;;;;;;10.27;9.23;;;;;;;;;;5059046;28;20244;-64
2023/05/14 09:24:47;;;;;;;9.73;8.73;;;;;;;;;;5054603;28;20705;-64
2023/05/14 09:27:20;;;;;;;9.45;8.55;;;;;;;;;;5057702;28;20294;-64
2023/05/14 09:29:48;;;;;;;9.70;7.88;;;;;;;;;;5049499;28;21048;-65
2023/05/14 09:32:16;;;;;;;9.65;8.70;;;;;;;;;;5055145;28;20206;-63
2023/05/14 09:34:47;;;;;;;7.88;7.10;;;;;;;;;;5061796;28;20233;-64
2023/05/14 09:37:24;;;;;;;7.97;7.28;;;;;;;;;;5057657;28;20229;-65
2023/05/14 09:39:52;;;;;;;9.25;7.55;;;;;;;;;;5053370;28;20205;-64
2023/05/14 09:42:19;;;;;;;7.68;6.80;;;;;;;;;;5053671;28;20205;-65
2023/05/14 09:44:46;;;;;;;8.38;7.57;;;;;;;;;;5046650;28;20205;-65
2023/05/14 09:47:14;;;;;;;7.80;7.07;;;;;;;;;;5047480;28;20356;-64
2023/05/14 09:49:42;;;;;;;8.20;7.40;;;;;;;;;;5053015;28;20218;-64
2023/05/14 09:52:11;;;;;;;7.25;6.60;;;;;;;;;;5052940;28;20667;-65
2023/05/14 09:54:39;;;;;;;7.53;6.68;;;;;;;;;;5051492;28;20207;-64
2023/05/14 09:57:06;;;;;;;7.50;6.80;;;;;;;;;;5060571;28;20225;-65
2023/05/14 09:59:34;;;;;;;6.32;5.72;;;;;;;;;;5064438;28;20316;-67
2023/05/14 10:02:01;;;;;;;6.18;5.68;;;;;;;;;;5062103;28;20225;-64
2023/05/14 10:04:29;;;;;;;19.63;12.63;;;;;;;;;;5050779;28;20217;-64
2023/05/14 10:06:56;;;;;;;6.43;5.82;;;;;;;;;;5060349;28;20225;-66
2023/05/14 10:09:27;;;;;;;6.13;5.57;;;;;;;;;;5048555;28;21221;-64
2023/05/14 10:11:58;;;;;;;6.22;5.63;;;;;;;;;;5056868;28;20201;-65
2023/05/14 10:14:43;;;;;;;6.40;5.68;;;;;;;;;;5046817;28;20237;-65
2023/05/14 10:17:16;;;;;;;6.20;5.60;;;;;;;;;;5051538;28;20275;-65
2023/05/14 10:19:50;;;;;;;6.40;5.82;;;;;;;;;;5054083;28;20208;-65
2023/05/14 10:22:21;;;;;;;5.20;4.80;;;;;;;;;;5057035;28;20233;-64
2023/05/14 10:24:52;;;;;;;6.05;5.40;;;;;;;;;;5060631;28;20426;-64
2023/05/14 10:27:21;;;;;;;4.78;4.38;;;;;;;;;;5058836;28;20249;-64
2023/05/14 10:29:55;;;;;;;5.07;4.68;;;;;;;;;;5076380;28;20702;-64
2023/05/14 10:32:24;;;;;;;7.03;6.32;;;;;;;;;;5052036;28;20288;-63
2023/05/14 10:34:52;;;;;;;7.55;6.78;;;;;;;;;;5052756;28;20213;-64
2023/05/14 10:37:24;;;;;;;8.68;7.43;;;;;;;;;;5053048;28;20233;-63
2023/05/14 10:39:52;;;;;;;8.88;6.80;;;;;;;;;;5054436;28;20222;-64
2023/05/14 10:42:21;;;;;;;8.50;7.70;;;;;;;;;;5059336;28;20256;-63
2023/05/14 10:44:51;;;;;;;7.90;7.10;;;;;;;;;;5057877;28;20283;-64
2023/05/14 10:47:19;;;;;;;6.85;6.10;;;;;;;;;;5052730;28;20417;-64
2023/05/14 10:49:48;;;;;;;6.68;6.05;;;;;;;;;;5060479;28;20292;-64
2023/05/14 10:52:17;;;;;;;6.90;6.30;;;;;;;;;;5051094;28;21675;-65
2023/05/14 10:54:52;;;;;;;5.80;5.30;;;;;;;;;;5047610;28;20213;-65
2023/05/14 10:57:20;;;;;;;5.57;5.18;;;;;;;;;;5040260;28;20231;-63
2023/05/14 10:59:48;;;;;;;6.38;5.78;;;;;;;;;;5041403;28;20213;-66
2023/05/14 11:02:20;;;;;;;12.43;7.47;;;;;;;;;;5052457;28;21520;-65
2023/05/14 11:05:07;;;;;;;5.70;4.65;;;;;;;;;;5043384;28;20237;-64
2023/05/14 11:07:38;;;;;;;4.80;4.22;;;;;;;;;;5056106;28;20241;-64
2023/05/14 11:10:17;;;;;;;4.90;4.40;;;;;;;;;;5051638;28;20211;-63
2023/05/14 11:12:58;;;;;;;4.95;4.40;;;;;;;;;;5048623;28;20335;-64
2023/05/14 11:15:27;;;;;;;4.20;3.90;;;;;;;;;;5045145;28;20213;-65
2023/05/14 11:17:55;;;;;;;6.15;5.30;;;;;;;;;;5048524;28;20237;-64
2023/05/14 11:20:23;;;;;;;4.10;3.80;;;;;;;;;;5049755;28;20220;-64
2023/05/14 11:22:51;;;;;;;4.85;4.05;;;;;;;;;;5046426;28;20217;-64
2023/05/14 11:25:20;;;;;;;5.63;5.10;;;;;;;;;;5052701;28;20193;-64
2023/05/14 11:27:49;;;;;;;6.10;5.47;;;;;;;;;;5048105;28;20229;-64
2023/05/14 11:30:26;;;;;;;7.57;6.47;;;;;;;;;;5049979;28;20285;-65
2023/05/14 11:32:53;;;;;;;6.72;6.10;;;;;;;;;;5045537;28;20313;-64
2023/05/14 11:35:20;;;;;;;10.27;7.32;;;;;;;;;;5051881;28;20200;-64
2023/05/14 11:37:51;;;;;;;7.30;6.60;;;;;;;;;;5048361;28;20312;-65
2023/05/14 11:40:19;;;;;;;6.72;6.13;;;;;;;;;;5050926;28;20229;-64
2023/05/14 11:42:46;;;;;;;13.40;8.88;;;;;;;;;;5051954;28;20233;-65
2023/05/14 11:45:24;;;;;;;7.30;6.40;;;;;;;;;;5048798;28;20209;-65
2023/05/14 11:47:55;;;;;;;6.05;5.45;;;;;;;;;;5059360;28;20299;-65
2023/05/14 11:50:23;;;;;;;6.55;5.95;;;;;;;;;;5058037;28;20288;-65
2023/05/14 11:52:50;;;;;;;6.68;6.07;;;;;;;;;;5056522;28;20198;-65
2023/05/14 11:55:18;;;;;;;8.05;7.22;;;;;;;;;;5059422;28;20209;-64
2023/05/14 11:57:45;;;;;;;6.80;6.13;;;;;;;;;;5055237;28;20648;-65
2023/05/14 12:00:15;;;;;;;5.18;4.78;;;;;;;;;;5052120;28;20220;-63
2023/05/14 12:02:43;;;;;;;6.15;5.28;;;;;;;;;;5055865;28;20238;-64
2023/05/14 12:05:12;;;;;;;5.32;4.65;;;;;;;;;;5047879;28;20286;-64
2023/05/14 12:07:40;;;;;;;5.72;4.65;;;;;;;;;;5051463;28;20510;-65
2023/05/14 12:10:08;;;;;;;6.18;4.88;;;;;;;;;;5065727;28;20193;-64
2023/05/14 12:12:36;;;;;;;5.38;4.93;;;;;;;;;;5078580;28;20207;-65
2023/05/14 12:15:12;;;;;;;6.10;5.47;;;;;;;;;;5057844;28;21123;-64
2023/05/14 12:17:41;;;;;;;5.00;4.60;;;;;;;;;;5046922;28;20229;-64
2023/05/14 12:20:11;;;;;;;5.20;4.70;;;;;;;;;;5046503;28;20205;-64
2023/05/14 12:22:41;;;;;;;5.57;5.07;;;;;;;;;;5059019;28;20214;-65
2023/05/14 12:25:12;;;;;;;6.68;4.60;;;;;;;;;;5050848;28;20221;-63
2023/05/14 12:27:40;;;;;;;4.78;4.38;;;;;;;;;;5051463;28;20698;-64
2023/05/14 12:30:23;;;;;;;4.55;4.18;;;;;;;;;;5054493;28;20197;-64
2023/05/14 12:33:09;;;;;;;4.50;4.07;;;;;;;;;;5051953;28;20227;-63
2023/05/14 12:35:52;;;;;;;4.50;4.10;;;;;;;;;;5053218;28;20202;-65
2023/05/14 12:38:35;;;;;;;4.90;4.32;;;;;;;;;;5047996;28;20233;-64
2023/05/14 12:41:03;;;;;;;4.30;4.00;;;;;;;;;;5046898;28;20301;-63
2023/05/14 12:43:34;;;;;;;5.20;4.70;;;;;;;;;;5052654;28;20222;-64
2023/05/14 12:46:02;;;;;;;4.82;4.43;;;;;;;;;;5052345;28;20205;-64
2023/05/14 12:48:31;;;;;;;5.70;5.05;;;;;;;;;;5056080;28;20254;-63
2023/05/14 12:50:59;;;;;;;5.55;5.05;;;;;;;;;;5053199;28;20214;-63
2023/05/14 12:53:27;;;;;;;5.57;5.10;;;;;;;;;;5054823;28;20209;-63
2023/05/14 12:55:59;;;;;;;6.35;5.72;;;;;;;;;;5058071;28;20835;-64
2023/05/14 12:58:29;;;;;;;6.15;5.55;;;;;;;;;;5053457;28;20695;-64
2023/05/14 13:01:00;;;;;;;5.45;4.95;;;;;;;;;;5066197;28;20553;-63
2023/05/14 13:03:29;;;;;;;5.32;4.82;;;;;;;;;;5058207;28;20274;-64
2023/05/14 13:05:57;;;;;;;6.07;5.57;;;;;;;;;;5059807;28;20205;-63
2023/05/14 13:08:27;;;;;;;5.57;5.13;;;;;;;;;;5048825;28;20278;-63
2023/05/14 13:11:09;;;;;;;6.47;5.70;;;;;;;;;;5051983;28;20221;-63
2023/05/14 13:13:47;;;;;;;8.85;8.05;;;;;;;;;;5054882;28;20210;-63
2023/05/14 13:16:32;;;;;;;6.82;5.80;;;;;;;;;;5055021;28;20209;-64
2023/05/14 13:19:13;;;;;;;5.57;5.03;;;;;;;;;;5058709;28;20228;-64
2023/05/14 13:21:42;;;;;;;5.47;5.00;;;;;;;;;;5051655;28;20228;-63
2023/05/14 13:24:15;;;;;;;5.53;5.03;;;;;;;;;;5045963;28;20214;-63
2023/05/14 13:26:44;;;;;;;5.43;5.03;;;;;;;;;;5057599;28;20271;-63
2023/05/14 13:29:13;;;;;;;5.28;4.88;;;;;;;;;;5051843;28;20583;-63
2023/05/14 13:31:41;;;;;;;5.95;5.35;;;;;;;;;;5054036;28;21031;-65
2023/05/14 13:34:09;;;;;;;7.45;6.40;;;;;;;;;;5049971;28;20764;-64
2023/05/14 13:39:25;;;;;;;4.25;3.95;;;;;;;;;;5047477;28;20251;-64
2023/05/14 13:42:00;;;;;;;3.70;3.40;;;;;;;;;;5051027;28;20219;-64
2023/05/14 13:44:28;;;;;;;3.95;3.65;;;;;;;;;;5038947;28;20229;-64
2023/05/14 13:46:56;;;;;;;4.13;3.78;;;;;;;;;;5043090;28;20632;-64
2023/05/14 13:49:23;;;;;;;3.97;3.58;;;;;;;;;;5047793;28;20209;-63
2023/05/14 13:51:51;;;;;;;4.15;3.80;;;;;;;;;;5049206;28;20247;-64
2023/05/14 13:54:20;;;;;;;4.10;3.78;;;;;;;;;;5041653;28;20660;-64
2023/05/14 13:57:02;;;;;;;4.43;4.03;;;;;;;;;;5045460;28;20229;-62
2023/05/14 13:59:30;;;;;;;4.38;3.53;;;;;;;;;;5050443;28;20704;-63
2023/05/14 14:02:12;;;;;;;2.90;2.60;;;;;;;;;;5050182;28;20200;-63
2023/05/14 14:04:48;;;;;;;2.83;2.47;;;;;;;;;;5049035;28;21453;-64
2023/05/14 14:07:16;;;;;;;2.83;2.50;;;;;;;;;;5049410;28;20272;-63
2023/05/14 14:09:46;;;;;;;2.85;2.55;;;;;;;;;;5048391;28;20208;-63
2023/05/14 14:12:14;;;;;;;2.38;2.28;;;;;;;;;;5046635;28;20199;-63
2023/05/14 14:14:41;;;;;;;2.65;2.45;;;;;;;;;;5051872;28;20208;-64
2023/05/14 14:17:09;;;;;;;3.17;2.97;;;;;;;;;;5054842;28;20336;-64
2023/05/14 14:19:36;;;;;;;2.88;2.58;;;;;;;;;;5048840;28;20217;-62
2023/05/14 14:22:04;;;;;;;2.33;2.22;;;;;;;;;;5047815;28;20209;-63
2023/05/14 14:24:32;;;;;;;2.78;2.58;;;;;;;;;;5048517;28;20300;-64
2023/05/14 14:27:01;;;;;;;3.03;2.83;;;;;;;;;;5051333;28;20226;-63
2023/05/14 14:29:29;;;;;;;3.95;2.85;;;;;;;;;;5044979;28;20240;-62
2023/05/14 14:31:57;;;;;;;4.30;3.35;;;;;;;;;;5049111;28;20206;-64
2023/05/14 14:34:25;;;;;;;3.03;2.75;;;;;;;;;;5042978;28;20212;-65
2023/05/14 14:36:52;;;;;;;2.20;2.00;;;;;;;;;;5054412;28;20701;-62
2023/05/14 14:39:23;;;;;;;2.35;2.20;;;;;;;;;;5051014;28;20201;-62
2023/05/14 14:41:51;;;;;;;2.10;2.00;;;;;;;;;;5047666;28;20213;-64
2023/05/14 14:44:18;;;;;;;2.78;2.35;;;;;;;;;;5050086;28;20213;-63
2023/05/14 14:46:46;;;;;;;2.50;2.30;;;;;;;;;;5043174;28;20282;-63
2023/05/14 14:49:14;;;;;;;2.42;2.22;;;;;;;;;;5019269;28;20818;-63
2023/05/14 14:51:42;;;;;;;2.55;2.30;;;;;;;;;;5055850;28;20206;-62
2023/05/14 14:54:12;;;;;;;2.28;2.08;;;;;;;;;;5073214;28;20210;-65